Dades de l'estació automàtica Sant Martí de Riucorb
Resum diari
18:30 TU| Temperatura mitjana | 29.8 °C | |
|---|---|---|
| Temperatura màxima | 38.7 °C | 13:49 TU |
| Temperatura mínima | 22.4 °C | 3:37 TU |
| Humitat relativa mitjana | 41% | |
| Precipitació acumulada | 0.0 mm | |
| Ratxa màxima del vent (2 m) | 25.2 km/h - 174º | 16:57 TU |
| Irradiació solar global | 21.1 MJ/m2 | |
El tram horari està expressat en Temps Universal (TU). Cal sumar una hora en horari d'hivern i dues en horari d'estiu per passar a l'hora oficial.
Sant Martí de Riucorb
| Municipi | Sant Martí de Riucorb |
|---|---|
| Comarca | Urgell |
| Altitud | 414 m |
| Data alta | 05.02.2002 |
| Estat actual | Operativa |
| Període TU |
TM °C |
TX °C |
TN °C |
HRM % |
PPT mm |
VVM (2 m) km/h |
DVM (2 m) graus |
VVX (2 m) km/h |
RS W/m2 |
|---|---|---|---|---|---|---|---|---|---|
| 00:00 - 00:30 | 24.8 | 26.9 | 23.6 | 51 | 0.0 | 0.0 | 0 | 0.0 | 0 |
| 00:30 - 01:00 | 23.5 | 24.3 | 22.8 | 55 | 0.0 | 0.0 | 147 | 5.4 | 0 |
| 01:00 - 01:30 | 23.7 | 23.9 | 23.3 | 52 | 0.0 | 4.7 | 146 | 8.6 | 0 |
| 01:30 - 02:00 | 23.4 | 23.6 | 23.4 | 51 | 0.0 | 5.0 | 141 | 9.0 | 0 |
| 02:00 - 02:30 | 23.4 | 23.5 | 23.2 | 51 | 0.0 | 5.4 | 141 | 11.2 | 0 |
| 02:30 - 03:00 | 23.0 | 23.3 | 22.6 | 52 | 0.0 | 6.1 | 148 | 10.4 | 0 |
| 03:00 - 03:30 | 22.5 | 22.6 | 22.4 | 54 | 0.0 | 6.1 | 143 | 10.4 | 0 |
| 03:30 - 04:00 | 22.6 | 22.7 | 22.4 | 53 | 0.0 | 5.8 | 141 | 9.7 | 0 |
| 04:00 - 04:30 | 22.8 | 23.1 | 22.6 | 52 | 0.0 | 5.0 | 134 | 10.1 | 0 |
| 04:30 - 05:00 | 23.1 | 23.1 | 23.0 | 51 | 0.0 | 5.4 | 133 | 10.4 | 0 |
| 05:00 - 05:30 | 22.9 | 23.1 | 22.8 | 52 | 0.0 | 5.4 | 134 | 11.2 | 0 |
| 05:30 - 06:00 | 23.2 | 23.6 | 23.0 | 51 | 0.0 | 5.8 | 133 | 12.6 | 30 |
| 06:00 - 06:30 | 24.4 | 25.0 | 23.7 | 49 | 0.0 | 4.3 | 133 | 9.7 | 88 |
| 06:30 - 07:00 | 25.4 | 26.3 | 25.0 | 48 | 0.0 | 4.0 | 139 | 8.6 | 122 |
| 07:00 - 07:30 | 26.8 | 27.5 | 26.2 | 46 | 0.0 | 2.2 | 204 | 8.3 | 211 |
| 07:30 - 08:00 | 27.2 | 28.6 | 26.2 | 45 | 0.0 | 0.0 | 0 | 0.0 | 250 |
| 08:00 - 08:30 | 29.1 | 29.7 | 28.6 | 41 | 0.0 | 1.1 | 301 | 6.8 | 378 |
| 08:30 - 09:00 | 30.2 | 30.7 | 29.5 | 39 | 0.0 | 1.1 | 311 | 7.9 | 399 |
| 09:00 - 09:30 | 31.6 | 32.8 | 30.6 | 37 | 0.0 | 1.8 | 303 | 8.6 | 591 |
| 09:30 - 10:00 | 33.3 | 34.4 | 32.5 | 33 | 0.0 | 3.2 | 319 | 9.4 | 700 |
| 10:00 - 10:30 | 34.5 | 34.8 | 34.2 | 29 | 0.0 | 4.7 | 311 | 12.2 | 729 |
| 10:30 - 11:00 | 35.1 | 35.8 | 34.5 | 28 | 0.0 | 5.8 | 297 | 13.3 | 768 |
| 11:00 - 11:30 | 35.3 | 35.8 | 34.8 | 29 | 0.0 | 7.6 | 294 | 15.5 | 790 |
| 11:30 - 12:00 | 35.9 | 36.3 | 35.4 | 28 | 0.0 | 5.4 | 298 | 13.0 | 805 |
| 12:00 - 12:30 | 36.6 | 36.8 | 36.0 | 27 | 0.0 | 5.4 | 281 | 14.4 | 806 |
| 12:30 - 13:00 | 37.2 | 37.6 | 36.7 | 26 | 0.0 | 5.8 | 298 | 12.6 | 790 |
| 13:00 - 13:30 | 37.7 | 38.3 | 37.3 | 25 | 0.0 | 5.0 | 294 | 14.0 | 757 |
| 13:30 - 14:00 | 37.9 | 38.7 | 37.2 | 29 | 0.0 | 4.7 | 246 | 20.5 | 707 |
| 14:00 - 14:30 | 37.4 | 37.8 | 37.0 | 30 | 0.0 | 7.6 | 166 | 20.9 | 655 |
| 14:30 - 15:00 | 37.1 | 37.6 | 36.5 | 31 | 0.0 | 8.3 | 165 | 18.4 | 585 |
| 15:00 - 15:30 | 36.0 | 36.5 | 35.3 | 34 | 0.0 | 10.4 | 146 | 21.2 | 515 |
| 15:30 - 16:00 | 35.1 | 35.3 | 34.7 | 36 | 0.0 | 11.2 | 150 | 23.4 | 432 |
| 16:00 - 16:30 | 34.4 | 34.8 | 33.9 | 36 | 0.0 | 10.4 | 155 | 21.6 | 327 |
| 16:30 - 17:00 | 33.0 | 33.8 | 32.2 | 38 | 0.0 | 10.4 | 156 | 25.2 | 134 |
| 17:00 - 17:30 | 32.0 | 32.3 | 31.6 | 40 | 0.0 | 10.8 | 154 | 22.3 | 113 |
| 17:30 - 18:00 | 31.2 | 31.5 | 30.8 | 40 | 0.0 | 9.4 | 154 | 23.8 | 51 |
| 18:00 - 18:30 | 30.3 | 30.8 | 29.8 | 42 | 0.0 | 9.7 | 151 | 19.1 | 4 |
| 18:30 - 19:00 | 29.5 | 29.8 | 29.2 | 43 | 0.0 | 9.4 | 151 | 19.8 | 0 |
Les dades en taronja només han passat un control de qualitat automàtic. Resta pendent la seva validació definitiva.